createdAt,value
2023-06-19T00:03:03.591Z,90.80
2023-06-19T00:07:23.285Z,90.69
2023-06-19T00:11:42.122Z,90.79
2023-06-19T00:16:01.710Z,90.72
2023-06-19T00:20:19.746Z,90.60
2023-06-19T00:24:37.375Z,90.64
2023-06-19T00:28:56.201Z,90.63
2023-06-19T00:33:13.666Z,90.69
2023-06-19T00:37:34.351Z,90.60
2023-06-19T00:41:56.368Z,90.57
2023-06-19T00:46:14.020Z,90.53
2023-06-19T00:50:32.713Z,90.53
2023-06-19T00:54:50.478Z,90.61
2023-06-19T00:59:17.386Z,90.86
2023-06-19T01:03:35.867Z,90.85
2023-06-19T01:08:19.192Z,90.78
2023-06-19T01:12:44.471Z,90.86
2023-06-19T01:17:02.777Z,90.92
2023-06-19T01:21:20.996Z,90.97
2023-06-19T01:25:39.213Z,90.94
2023-06-19T01:30:02.634Z,90.98
2023-06-19T01:34:22.089Z,91.17
2023-06-19T01:38:42.660Z,91.25
2023-06-19T01:43:02.350Z,91.34
2023-06-19T01:47:23.090Z,91.39
2023-06-19T01:51:42.007Z,91.53
2023-06-19T01:56:02.747Z,91.64
2023-06-19T02:00:21.548Z,91.43
2023-06-19T02:04:39.295Z,91.46
2023-06-19T02:08:56.955Z,91.39
2023-06-19T02:13:15.151Z,91.29
2023-06-19T02:17:33.260Z,91.29
2023-06-19T02:21:51.690Z,91.33
2023-06-19T02:26:09.282Z,91.34
2023-06-19T02:30:27.594Z,91.35
2023-06-19T02:34:46.765Z,91.38
2023-06-19T02:39:08.156Z,91.30
2023-06-19T02:43:26.217Z,91.35
2023-06-19T02:47:44.604Z,91.54
2023-06-19T02:52:02.222Z,91.53
2023-06-19T02:56:21.253Z,91.48
2023-06-19T03:00:39.661Z,91.46
2023-06-19T03:04:59.028Z,91.43
2023-06-19T03:09:16.741Z,91.45
2023-06-19T03:13:53.325Z,91.40
2023-06-19T03:18:12.258Z,91.37
2023-06-19T03:22:29.922Z,91.32
2023-06-19T03:26:47.575Z,91.27
2023-06-19T03:31:05.309Z,91.24
2023-06-19T03:35:23.481Z,91.40
2023-06-19T03:39:41.657Z,91.38
2023-06-19T03:44:00.305Z,91.39
2023-06-19T03:48:18.891Z,91.33
2023-06-19T03:52:38.266Z,91.36
2023-06-19T03:56:56.319Z,91.38
2023-06-19T04:01:14.410Z,91.36
2023-06-19T04:05:31.583Z,91.28
2023-06-19T04:09:51.683Z,91.33
2023-06-19T04:14:09.245Z,91.26
2023-06-19T04:18:27.426Z,90.95
2023-06-19T04:22:46.574Z,90.97
2023-06-19T04:27:04.538Z,90.75
2023-06-19T04:31:24.111Z,90.63
2023-06-19T04:35:42.069Z,90.36
2023-06-19T04:40:00.678Z,90.27
2023-06-19T04:44:18.203Z,89.87
2023-06-19T04:48:38.301Z,89.73
2023-06-19T04:52:56.155Z,89.41
2023-06-19T04:57:13.714Z,88.75
2023-06-19T05:01:31.981Z,87.64
2023-06-19T05:05:49.749Z,86.81
2023-06-19T05:10:08.986Z,84.57
2023-06-19T05:14:26.614Z,82.87
2023-06-19T05:18:45.368Z,82.04
2023-06-19T05:23:03.684Z,80.30
2023-06-19T05:27:21.109Z,78.38
2023-06-19T05:31:38.585Z,77.02
2023-06-19T05:35:57.995Z,76.78
2023-06-19T05:40:16.665Z,75.92
2023-06-19T05:44:34.247Z,74.98
2023-06-19T05:48:52.808Z,75.01
2023-06-19T05:53:13.391Z,74.25
2023-06-19T05:57:33.333Z,72.76
2023-06-19T06:01:52.402Z,72.30
2023-06-19T06:06:10.033Z,71.15
2023-06-19T06:10:28.305Z,69.21
2023-06-19T06:14:45.989Z,65.49
2023-06-19T06:19:04.088Z,65.49
2023-06-19T06:23:22.229Z,65.14
2023-06-19T06:27:39.946Z,63.30
2023-06-19T06:32:09.112Z,62.33
2023-06-19T06:36:36.025Z,61.49
2023-06-19T06:40:54.819Z,56.82
2023-06-19T06:45:12.448Z,55.71
2023-06-19T06:49:30.518Z,55.12
2023-06-19T06:53:48.381Z,51.51
2023-06-19T06:58:06.578Z,54.13
2023-06-19T07:02:25.331Z,53.40
2023-06-19T07:06:45.029Z,54.27
2023-06-19T07:11:02.657Z,53.99
2023-06-19T07:15:21.371Z,50.36
2023-06-19T07:19:39.074Z,50.81
2023-06-19T07:23:58.622Z,49.04
2023-06-19T07:28:16.933Z,49.88
2023-06-19T07:32:34.637Z,47.85
2023-06-19T07:36:54.473Z,47.94
2023-06-19T07:41:12.416Z,49.25
2023-06-19T07:45:29.943Z,48.74
2023-06-19T07:49:48.155Z,47.42
2023-06-19T07:54:06.402Z,47.98
2023-06-19T07:58:23.916Z,46.14
2023-06-19T08:02:44.262Z,43.39
2023-06-19T08:07:01.937Z,42.75
2023-06-19T08:11:19.953Z,39.59
2023-06-19T08:15:38.024Z,42.00
2023-06-19T08:19:56.578Z,44.99
2023-06-19T08:24:14.159Z,44.52
2023-06-19T08:28:35.221Z,43.20
2023-06-19T08:32:52.962Z,43.06
2023-06-19T08:37:11.332Z,42.75
2023-06-19T08:41:29.539Z,43.04
2023-06-19T08:46:20.245Z,43.08
2023-06-19T08:50:38.721Z,40.75
2023-06-19T08:54:56.288Z,39.99
2023-06-19T08:59:20.040Z,43.51
2023-06-19T09:03:37.678Z,37.98
2023-06-19T09:08:02.904Z,36.67
2023-06-19T09:12:21.550Z,36.12
2023-06-19T09:16:44.090Z,38.62
2023-06-19T09:21:03.068Z,38.05
2023-06-19T09:25:20.935Z,37.50
2023-06-19T09:29:40.540Z,38.03
2023-06-19T09:33:58.236Z,35.68
2023-06-19T09:38:19.646Z,34.90
2023-06-19T09:42:46.178Z,35.67
2023-06-19T09:47:08.527Z,37.64
2023-06-19T09:51:34.376Z,35.83
2023-06-19T09:55:53.092Z,37.78
2023-06-19T10:00:18.470Z,34.80
2023-06-19T10:04:46.572Z,35.77
2023-06-19T10:09:10.191Z,32.58
2023-06-19T10:13:40.794Z,30.42
2023-06-19T10:18:07.067Z,31.85
2023-06-19T10:22:26.012Z,33.99
2023-06-19T10:26:43.633Z,31.03
2023-06-19T10:31:08.074Z,29.21
2023-06-19T10:35:27.175Z,31.65
2023-06-19T10:39:45.886Z,34.47
2023-06-19T10:44:14.151Z,31.99
2023-06-19T10:48:31.962Z,33.83
2023-06-19T10:52:50.217Z,35.76
2023-06-19T10:57:08.737Z,37.85
2023-06-19T11:01:54.184Z,31.46
2023-06-19T11:06:12.243Z,28.37
2023-06-19T11:10:32.482Z,27.09
2023-06-19T11:14:51.718Z,27.78
2023-06-19T11:19:16.582Z,25.11
2023-06-19T11:23:34.149Z,25.93
2023-06-19T11:27:56.912Z,25.41
2023-06-19T11:32:18.867Z,23.26
2023-06-19T11:36:43.743Z,22.23
2023-06-19T11:41:02.472Z,21.98
2023-06-19T11:45:21.642Z,21.25
2023-06-19T11:49:39.420Z,20.49
2023-06-19T11:53:59.042Z,20.75
2023-06-19T11:58:16.727Z,19.35
2023-06-19T12:02:35.138Z,21.80
2023-06-19T12:06:54.245Z,19.12
2023-06-19T12:11:12.832Z,15.66
2023-06-19T12:15:31.669Z,19.06
2023-06-19T12:19:50.050Z,19.66
2023-06-19T12:24:08.378Z,19.01
2023-06-19T12:28:26.756Z,15.81
2023-06-19T12:32:44.518Z,14.95
2023-06-19T12:37:02.947Z,14.93
2023-06-19T12:41:21.370Z,16.79
2023-06-19T12:45:41.088Z,18.31
2023-06-19T12:49:59.295Z,19.34
2023-06-19T12:54:16.824Z,16.74
2023-06-19T12:58:35.396Z,14.58
2023-06-19T13:02:53.882Z,15.83
2023-06-19T13:07:12.092Z,14.93
2023-06-19T13:11:29.982Z,13.54
2023-06-19T13:15:50.066Z,14.44
2023-06-19T13:20:09.209Z,12.45
2023-06-19T13:24:28.804Z,11.98
2023-06-19T13:28:47.192Z,11.75
2023-06-19T13:33:05.452Z,11.49
2023-06-19T13:37:25.260Z,11.55
2023-06-19T13:41:43.572Z,11.41
2023-06-19T13:46:02.240Z,9.56
2023-06-19T13:50:23.009Z,10.35
2023-06-19T13:54:40.865Z,9.69
2023-06-19T13:59:02.396Z,11.60
2023-06-19T14:03:22.013Z,11.77
2023-06-19T14:07:43.187Z,10.79
2023-06-19T14:12:02.524Z,10.30
2023-06-19T14:16:20.163Z,11.70
2023-06-19T14:20:38.663Z,11.53
2023-06-19T14:25:00.881Z,10.72
2023-06-19T14:29:20.014Z,10.53
2023-06-19T14:33:41.900Z,9.65
2023-06-19T14:37:59.518Z,11.63
2023-06-19T14:42:17.977Z,12.50
2023-06-19T14:46:41.708Z,14.72
2023-06-19T14:50:59.882Z,13.48
2023-06-19T14:55:18.054Z,12.89
2023-06-19T14:59:36.510Z,11.86
2023-06-19T15:03:54.401Z,12.97
2023-06-19T15:08:12.664Z,13.86
2023-06-19T15:12:30.419Z,14.02
2023-06-19T15:16:49.187Z,12.71
2023-06-19T15:21:08.493Z,12.10
2023-06-19T15:25:26.308Z,11.00
2023-06-19T15:29:44.080Z,11.64
2023-06-19T15:34:02.980Z,11.51
2023-06-19T15:38:22.018Z,13.77
2023-06-19T15:42:41.053Z,13.99
2023-06-19T15:46:58.692Z,13.01
2023-06-19T15:51:17.212Z,13.84
2023-06-19T15:55:34.849Z,14.19
2023-06-19T15:59:54.163Z,15.26
2023-06-19T16:04:12.351Z,16.38
2023-06-19T16:08:31.017Z,15.20
2023-06-19T16:12:51.424Z,18.38
2023-06-19T16:17:08.883Z,17.54
2023-06-19T16:21:30.220Z,18.95
2023-06-19T16:25:47.813Z,18.86
2023-06-19T16:30:07.033Z,17.82
2023-06-19T16:34:25.245Z,24.40
2023-06-19T16:38:43.532Z,21.19
2023-06-19T16:43:01.869Z,20.26
2023-06-19T16:47:19.830Z,21.55
2023-06-19T16:51:38.686Z,21.71
2023-06-19T16:55:59.640Z,21.40
2023-06-19T17:00:19.002Z,21.58
2023-06-19T17:04:39.249Z,21.64
2023-06-19T17:08:58.393Z,25.06
2023-06-19T17:13:16.382Z,25.62
2023-06-19T17:17:36.734Z,27.16
2023-06-19T17:21:54.984Z,31.30
2023-06-19T17:26:12.629Z,35.93
2023-06-19T17:30:31.046Z,35.72
2023-06-19T17:34:49.481Z,37.57
2023-06-19T17:39:08.690Z,39.24
2023-06-19T17:43:26.272Z,41.68
2023-06-19T17:47:44.717Z,43.76
2023-06-19T17:52:02.886Z,45.71
2023-06-19T17:56:22.096Z,47.98
2023-06-19T18:00:39.995Z,52.37
2023-06-19T18:04:59.722Z,54.89
2023-06-19T18:09:17.320Z,57.89
2023-06-19T18:13:35.015Z,60.96
2023-06-19T18:17:53.179Z,62.54
2023-06-19T18:22:10.687Z,63.93
2023-06-19T18:26:30.078Z,64.85
2023-06-19T18:30:48.365Z,65.98
2023-06-19T18:35:06.946Z,67.21
2023-06-19T18:39:26.177Z,68.56
2023-06-19T18:43:43.819Z,69.96
2023-06-19T18:48:01.696Z,71.42
2023-06-19T18:52:19.286Z,71.94
2023-06-19T18:56:39.124Z,72.69
2023-06-19T19:00:57.427Z,73.47
2023-06-19T19:05:17.033Z,74.47
2023-06-19T19:09:34.653Z,75.02
2023-06-19T19:13:53.043Z,75.79
2023-06-19T19:18:12.754Z,77.07
2023-06-19T19:22:31.779Z,76.87
2023-06-19T19:26:50.079Z,77.67
2023-06-19T19:31:07.759Z,78.34
2023-06-19T19:35:25.450Z,78.84
2023-06-19T19:39:43.935Z,79.27
2023-06-19T19:44:01.527Z,79.67
2023-06-19T19:48:19.459Z,79.84
2023-06-19T19:52:37.856Z,80.22
2023-06-19T19:56:56.883Z,80.46
2023-06-19T20:01:14.701Z,80.90
2023-06-19T20:05:34.308Z,81.46
2023-06-19T20:09:51.940Z,81.71
2023-06-19T20:14:10.156Z,82.13
2023-06-19T20:18:28.904Z,82.57
2023-06-19T20:22:46.988Z,82.91
2023-06-19T20:27:06.231Z,83.15
2023-06-19T20:31:24.926Z,83.36
2023-06-19T20:35:42.603Z,83.50
2023-06-19T20:40:03.573Z,83.84
2023-06-19T20:44:21.699Z,84.26
2023-06-19T20:48:40.654Z,84.66
2023-06-19T20:52:58.772Z,84.87
2023-06-19T20:57:16.544Z,84.81
2023-06-19T21:01:36.578Z,84.91
2023-06-19T21:05:57.725Z,84.92
2023-06-19T21:10:15.642Z,85.06
2023-06-19T21:14:34.804Z,85.13
2023-06-19T21:18:52.559Z,85.25
2023-06-19T21:23:10.106Z,85.68
2023-06-19T21:27:28.679Z,85.42
2023-06-19T21:31:47.239Z,85.10
2023-06-19T21:36:05.970Z,85.01
2023-06-19T21:40:23.916Z,85.16
2023-06-19T21:44:44.626Z,85.22
2023-06-19T21:49:05.295Z,85.55
2023-06-19T21:53:23.854Z,85.63
2023-06-19T22:02:04.846Z,86.18
2023-06-19T22:06:22.851Z,86.38
2023-06-19T22:10:40.845Z,86.50
2023-06-19T22:14:58.688Z,86.74
2023-06-19T22:19:16.263Z,86.97
2023-06-19T22:23:35.024Z,86.98
2023-06-19T22:27:55.650Z,87.04
2023-06-19T22:32:15.085Z,87.39
2023-06-19T22:36:32.692Z,87.44
2023-06-19T22:40:50.111Z,87.40
2023-06-19T22:45:09.410Z,87.45
2023-06-19T22:49:30.484Z,87.29
2023-06-19T22:53:49.889Z,87.36
2023-06-19T22:58:07.453Z,87.42
2023-06-19T23:02:25.267Z,87.52
2023-06-19T23:06:44.651Z,87.62
2023-06-19T23:11:02.727Z,87.92
2023-06-19T23:15:20.311Z,88.12
2023-06-19T23:19:37.940Z,88.19
2023-06-19T23:23:57.140Z,88.23
2023-06-19T23:28:15.146Z,88.24
2023-06-19T23:32:32.817Z,88.34
2023-06-19T23:36:53.591Z,88.37
2023-06-19T23:41:12.896Z,88.49
2023-06-19T23:45:30.463Z,88.39
2023-06-19T23:49:49.785Z,88.36
2023-06-19T23:54:07.502Z,88.43
2023-06-19T23:58:25.603Z,88.42
